sensor_id;sensor_type;location;lat;lon;timestamp;P1;durP1;ratioP1;P2;durP2;ratioP2
25437;SDS011;13364;49.084;9.978;2022-11-03T00:01:42;11.90;;;6.38;;
25437;SDS011;13364;49.084;9.978;2022-11-03T00:04:14;15.60;;;6.10;;
25437;SDS011;13364;49.084;9.978;2022-11-03T00:06:44;14.02;;;5.95;;
25437;SDS011;13364;49.084;9.978;2022-11-03T00:09:13;11.95;;;6.15;;
25437;SDS011;13364;49.084;9.978;2022-11-03T00:11:42;11.23;;;5.75;;
25437;SDS011;13364;49.084;9.978;2022-11-03T00:14:10;10.48;;;5.80;;
25437;SDS011;13364;49.084;9.978;2022-11-03T00:16:38;13.50;;;6.45;;
25437;SDS011;13364;49.084;9.978;2022-11-03T00:19:06;12.70;;;6.70;;
25437;SDS011;13364;49.084;9.978;2022-11-03T00:21:34;18.55;;;8.57;;
25437;SDS011;13364;49.084;9.978;2022-11-03T00:24:02;15.38;;;8.75;;
25437;SDS011;13364;49.084;9.978;2022-11-03T00:26:31;19.65;;;9.38;;
25437;SDS011;13364;49.084;9.978;2022-11-03T00:29:00;16.92;;;10.18;;
25437;SDS011;13364;49.084;9.978;2022-11-03T00:31:32;14.43;;;8.30;;
25437;SDS011;13364;49.084;9.978;2022-11-03T00:36:32;17.60;;;7.75;;
25437;SDS011;13364;49.084;9.978;2022-11-03T00:39:04;11.80;;;6.43;;
25437;SDS011;13364;49.084;9.978;2022-11-03T00:41:31;11.60;;;6.40;;
25437;SDS011;13364;49.084;9.978;2022-11-03T00:43:59;14.43;;;6.13;;
25437;SDS011;13364;49.084;9.978;2022-11-03T00:46:26;9.65;;;5.80;;
25437;SDS011;13364;49.084;9.978;2022-11-03T00:48:54;11.40;;;5.35;;
25437;SDS011;13364;49.084;9.978;2022-11-03T00:51:22;12.80;;;6.00;;
25437;SDS011;13364;49.084;9.978;2022-11-03T00:53:54;10.85;;;6.20;;
25437;SDS011;13364;49.084;9.978;2022-11-03T00:56:26;12.32;;;6.03;;
25437;SDS011;13364;49.084;9.978;2022-11-03T00:58:58;13.75;;;5.55;;
25437;SDS011;13364;49.084;9.978;2022-11-03T01:01:27;13.48;;;5.85;;
25437;SDS011;13364;49.084;9.978;2022-11-03T01:04:04;13.40;;;5.95;;
25437;SDS011;13364;49.084;9.978;2022-11-03T01:06:52;12.98;;;6.15;;
25437;SDS011;13364;49.084;9.978;2022-11-03T01:09:21;13.95;;;6.78;;
25437;SDS011;13364;49.084;9.978;2022-11-03T01:11:59;11.45;;;5.72;;
25437;SDS011;13364;49.084;9.978;2022-11-03T01:14:30;11.73;;;5.97;;
25437;SDS011;13364;49.084;9.978;2022-11-03T01:16:59;15.02;;;8.32;;
25437;SDS011;13364;49.084;9.978;2022-11-03T01:19:26;10.02;;;6.95;;
25437;SDS011;13364;49.084;9.978;2022-11-03T01:21:53;11.95;;;7.25;;
25437;SDS011;13364;49.084;9.978;2022-11-03T01:24:21;14.68;;;7.80;;
25437;SDS011;13364;49.084;9.978;2022-11-03T01:26:48;13.57;;;7.00;;
25437;SDS011;13364;49.084;9.978;2022-11-03T01:29:15;15.00;;;7.28;;
25437;SDS011;13364;49.084;9.978;2022-11-03T01:31:42;18.83;;;8.55;;
25437;SDS011;13364;49.084;9.978;2022-11-03T01:34:16;17.23;;;8.65;;
25437;SDS011;13364;49.084;9.978;2022-11-03T01:36:45;13.82;;;8.65;;
25437;SDS011;13364;49.084;9.978;2022-11-03T01:39:13;21.17;;;9.32;;
25437;SDS011;13364;49.084;9.978;2022-11-03T01:41:42;14.80;;;8.13;;
25437;SDS011;13364;49.084;9.978;2022-11-03T01:46:50;18.67;;;9.18;;
25437;SDS011;13364;49.084;9.978;2022-11-03T01:49:24;21.58;;;9.80;;
25437;SDS011;13364;49.084;9.978;2022-11-03T01:52:05;20.40;;;9.02;;
25437;SDS011;13364;49.084;9.978;2022-11-03T01:54:40;20.35;;;10.60;;
25437;SDS011;13364;49.084;9.978;2022-11-03T01:57:11;22.73;;;10.10;;
25437;SDS011;13364;49.084;9.978;2022-11-03T01:59:42;17.40;;;10.38;;
25437;SDS011;13364;49.084;9.978;2022-11-03T02:02:17;19.35;;;11.02;;
25437;SDS011;13364;49.084;9.978;2022-11-03T02:04:44;15.02;;;9.52;;
25437;SDS011;13364;49.084;9.978;2022-11-03T02:11:24;15.95;;;8.02;;
25437;SDS011;13364;49.084;9.978;2022-11-03T02:14:11;12.40;;;7.85;;
25437;SDS011;13364;49.084;9.978;2022-11-03T02:16:39;13.82;;;7.47;;
25437;SDS011;13364;49.084;9.978;2022-11-03T02:25:01;18.77;;;8.77;;
25437;SDS011;13364;49.084;9.978;2022-11-03T02:27:50;14.57;;;8.82;;
25437;SDS011;13364;49.084;9.978;2022-11-03T02:30:17;18.45;;;8.98;;
25437;SDS011;13364;49.084;9.978;2022-11-03T02:32:51;21.10;;;9.27;;
25437;SDS011;13364;49.084;9.978;2022-11-03T02:37:55;19.88;;;9.80;;
25437;SDS011;13364;49.084;9.978;2022-11-03T02:40:34;21.02;;;9.90;;
25437;SDS011;13364;49.084;9.978;2022-11-03T02:43:04;15.85;;;9.35;;
25437;SDS011;13364;49.084;9.978;2022-11-03T02:45:33;23.55;;;10.75;;
25437;SDS011;13364;49.084;9.978;2022-11-03T02:48:00;24.83;;;10.98;;
25437;SDS011;13364;49.084;9.978;2022-11-03T02:50:29;19.50;;;10.73;;
25437;SDS011;13364;49.084;9.978;2022-11-03T02:52:58;23.02;;;11.38;;
25437;SDS011;13364;49.084;9.978;2022-11-03T02:55:39;20.20;;;10.20;;
25437;SDS011;13364;49.084;9.978;2022-11-03T03:01:19;16.25;;;10.10;;
25437;SDS011;13364;49.084;9.978;2022-11-03T03:03:53;19.98;;;10.20;;
25437;SDS011;13364;49.084;9.978;2022-11-03T03:08:55;16.05;;;9.18;;
25437;SDS011;13364;49.084;9.978;2022-11-03T03:11:25;14.57;;;8.80;;
25437;SDS011;13364;49.084;9.978;2022-11-03T03:14:05;14.95;;;8.70;;
25437;SDS011;13364;49.084;9.978;2022-11-03T03:16:34;17.33;;;8.52;;
25437;SDS011;13364;49.084;9.978;2022-11-03T03:26:36;16.52;;;6.82;;
25437;SDS011;13364;49.084;9.978;2022-11-03T03:31:39;18.50;;;6.20;;
25437;SDS011;13364;49.084;9.978;2022-11-03T03:34:13;14.07;;;6.60;;
25437;SDS011;13364;49.084;9.978;2022-11-03T03:37:00;12.07;;;6.00;;
25437;SDS011;13364;49.084;9.978;2022-11-03T03:39:29;12.13;;;7.05;;
25437;SDS011;13364;49.084;9.978;2022-11-03T03:41:59;12.65;;;6.63;;
25437;SDS011;13364;49.084;9.978;2022-11-03T03:44:28;14.00;;;6.78;;
25437;SDS011;13364;49.084;9.978;2022-11-03T03:49:26;14.38;;;6.43;;
25437;SDS011;13364;49.084;9.978;2022-11-03T03:51:54;15.90;;;7.10;;
25437;SDS011;13364;49.084;9.978;2022-11-03T03:54:21;10.80;;;6.47;;
25437;SDS011;13364;49.084;9.978;2022-11-03T03:59:21;14.15;;;6.53;;
25437;SDS011;13364;49.084;9.978;2022-11-03T04:01:48;12.00;;;6.00;;
25437;SDS011;13364;49.084;9.978;2022-11-03T04:04:16;10.10;;;6.22;;
25437;SDS011;13364;49.084;9.978;2022-11-03T04:06:43;13.82;;;6.47;;
25437;SDS011;13364;49.084;9.978;2022-11-03T04:09:10;13.43;;;6.32;;
25437;SDS011;13364;49.084;9.978;2022-11-03T04:11:37;16.25;;;6.25;;
25437;SDS011;13364;49.084;9.978;2022-11-03T04:14:22;15.23;;;6.75;;
25437;SDS011;13364;49.084;9.978;2022-11-03T04:17:13;16.42;;;7.18;;
25437;SDS011;13364;49.084;9.978;2022-11-03T04:20:05;15.10;;;6.95;;
25437;SDS011;13364;49.084;9.978;2022-11-03T04:22:57;13.18;;;6.05;;
25437;SDS011;13364;49.084;9.978;2022-11-03T04:25:24;14.10;;;7.30;;
25437;SDS011;13364;49.084;9.978;2022-11-03T04:27:51;12.00;;;7.07;;
25437;SDS011;13364;49.084;9.978;2022-11-03T04:30:18;14.98;;;7.05;;
25437;SDS011;13364;49.084;9.978;2022-11-03T04:32:47;13.35;;;6.53;;
25437;SDS011;13364;49.084;9.978;2022-11-03T04:37:44;11.90;;;6.70;;
25437;SDS011;13364;49.084;9.978;2022-11-03T04:40:14;14.60;;;7.03;;
25437;SDS011;13364;49.084;9.978;2022-11-03T04:42:43;14.60;;;6.53;;
25437;SDS011;13364;49.084;9.978;2022-11-03T04:45:32;12.82;;;6.25;;
25437;SDS011;13364;49.084;9.978;2022-11-03T04:48:13;11.52;;;6.47;;
25437;SDS011;13364;49.084;9.978;2022-11-03T04:50:42;14.57;;;7.38;;
25437;SDS011;13364;49.084;9.978;2022-11-03T04:53:13;14.93;;;6.68;;
25437;SDS011;13364;49.084;9.978;2022-11-03T04:55:43;10.77;;;6.88;;
25437;SDS011;13364;49.084;9.978;2022-11-03T04:58:19;15.50;;;7.22;;
25437;SDS011;13364;49.084;9.978;2022-11-03T05:00:52;13.80;;;7.80;;
25437;SDS011;13364;49.084;9.978;2022-11-03T05:03:22;12.65;;;7.80;;
25437;SDS011;13364;49.084;9.978;2022-11-03T05:05:51;18.92;;;7.95;;
25437;SDS011;13364;49.084;9.978;2022-11-03T05:08:19;18.35;;;7.80;;
25437;SDS011;13364;49.084;9.978;2022-11-03T05:10:47;13.93;;;8.52;;
25437;SDS011;13364;49.084;9.978;2022-11-03T05:13:24;14.40;;;8.15;;
25437;SDS011;13364;49.084;9.978;2022-11-03T05:15:58;12.65;;;8.85;;
25437;SDS011;13364;49.084;9.978;2022-11-03T05:18:29;15.43;;;10.15;;
25437;SDS011;13364;49.084;9.978;2022-11-03T05:21:04;19.08;;;9.43;;
25437;SDS011;13364;49.084;9.978;2022-11-03T05:23:43;17.10;;;9.77;;
25437;SDS011;13364;49.084;9.978;2022-11-03T05:26:18;16.35;;;9.32;;
25437;SDS011;13364;49.084;9.978;2022-11-03T05:28:52;14.32;;;9.70;;
25437;SDS011;13364;49.084;9.978;2022-11-03T05:31:26;16.20;;;10.55;;
25437;SDS011;13364;49.084;9.978;2022-11-03T05:33:56;15.63;;;9.02;;
25437;SDS011;13364;49.084;9.978;2022-11-03T05:36:26;17.50;;;9.75;;
25437;SDS011;13364;49.084;9.978;2022-11-03T05:38:57;14.23;;;9.35;;
25437;SDS011;13364;49.084;9.978;2022-11-03T05:41:30;18.38;;;10.80;;
25437;SDS011;13364;49.084;9.978;2022-11-03T05:43:58;15.48;;;9.88;;
25437;SDS011;13364;49.084;9.978;2022-11-03T05:46:30;22.05;;;10.88;;
25437;SDS011;13364;49.084;9.978;2022-11-03T05:49:01;20.67;;;10.70;;
25437;SDS011;13364;49.084;9.978;2022-11-03T05:51:47;17.52;;;10.23;;
25437;SDS011;13364;49.084;9.978;2022-11-03T05:54:19;22.10;;;10.73;;
25437;SDS011;13364;49.084;9.978;2022-11-03T05:56:51;20.63;;;11.90;;
25437;SDS011;13364;49.084;9.978;2022-11-03T05:59:19;18.70;;;11.85;;
25437;SDS011;13364;49.084;9.978;2022-11-03T06:01:51;24.92;;;11.43;;
25437;SDS011;13364;49.084;9.978;2022-11-03T06:04:33;21.15;;;12.00;;
25437;SDS011;13364;49.084;9.978;2022-11-03T06:07:08;31.25;;;13.30;;
25437;SDS011;13364;49.084;9.978;2022-11-03T06:09:50;24.02;;;11.75;;
25437;SDS011;13364;49.084;9.978;2022-11-03T06:12:19;26.33;;;12.70;;
25437;SDS011;13364;49.084;9.978;2022-11-03T06:14:47;23.92;;;14.43;;
25437;SDS011;13364;49.084;9.978;2022-11-03T06:19:47;24.55;;;13.07;;
25437;SDS011;13364;49.084;9.978;2022-11-03T06:22:18;25.33;;;13.70;;
25437;SDS011;13364;49.084;9.978;2022-11-03T06:27:50;24.33;;;14.27;;
25437;SDS011;13364;49.084;9.978;2022-11-03T06:30:28;29.50;;;13.70;;
25437;SDS011;13364;49.084;9.978;2022-11-03T06:32:59;27.02;;;12.45;;
25437;SDS011;13364;49.084;9.978;2022-11-03T06:35:35;24.05;;;11.93;;
25437;SDS011;13364;49.084;9.978;2022-11-03T06:38:04;25.65;;;11.85;;
25437;SDS011;13364;49.084;9.978;2022-11-03T06:40:39;20.33;;;11.57;;
25437;SDS011;13364;49.084;9.978;2022-11-03T06:43:13;20.52;;;11.73;;
25437;SDS011;13364;49.084;9.978;2022-11-03T06:46:19;22.02;;;11.48;;
25437;SDS011;13364;49.084;9.978;2022-11-03T06:48:45;23.40;;;12.27;;
25437;SDS011;13364;49.084;9.978;2022-11-03T06:51:13;19.92;;;11.65;;
25437;SDS011;13364;49.084;9.978;2022-11-03T06:54:01;20.75;;;11.38;;
25437;SDS011;13364;49.084;9.978;2022-11-03T06:56:34;25.90;;;12.52;;
25437;SDS011;13364;49.084;9.978;2022-11-03T06:59:02;25.25;;;12.73;;
25437;SDS011;13364;49.084;9.978;2022-11-03T07:01:31;22.00;;;12.80;;
25437;SDS011;13364;49.084;9.978;2022-11-03T07:04:43;26.35;;;13.80;;
25437;SDS011;13364;49.084;9.978;2022-11-03T07:06:56;25.95;;;12.70;;
25437;SDS011;13364;49.084;9.978;2022-11-03T07:09:26;24.35;;;12.55;;
25437;SDS011;13364;49.084;9.978;2022-11-03T07:11:54;24.88;;;12.98;;
25437;SDS011;13364;49.084;9.978;2022-11-03T07:14:26;24.02;;;14.88;;
25437;SDS011;13364;49.084;9.978;2022-11-03T07:16:55;26.08;;;15.25;;
25437;SDS011;13364;49.084;9.978;2022-11-03T07:22:22;29.83;;;15.82;;
25437;SDS011;13364;49.084;9.978;2022-11-03T07:24:52;24.63;;;14.55;;
25437;SDS011;13364;49.084;9.978;2022-11-03T07:27:23;27.77;;;15.10;;
25437;SDS011;13364;49.084;9.978;2022-11-03T07:29:53;30.08;;;14.55;;
25437;SDS011;13364;49.084;9.978;2022-11-03T07:32:28;28.30;;;15.48;;
25437;SDS011;13364;49.084;9.978;2022-11-03T07:35:03;25.15;;;14.52;;
25437;SDS011;13364;49.084;9.978;2022-11-03T07:37:46;32.70;;;16.90;;
25437;SDS011;13364;49.084;9.978;2022-11-03T07:40:18;32.10;;;17.58;;
25437;SDS011;13364;49.084;9.978;2022-11-03T07:42:49;32.70;;;16.77;;
25437;SDS011;13364;49.084;9.978;2022-11-03T07:48:23;34.20;;;17.63;;
25437;SDS011;13364;49.084;9.978;2022-11-03T07:50:58;28.58;;;16.65;;
25437;SDS011;13364;49.084;9.978;2022-11-03T07:53:33;31.70;;;16.55;;
25437;SDS011;13364;49.084;9.978;2022-11-03T07:56:19;29.27;;;16.50;;
25437;SDS011;13364;49.084;9.978;2022-11-03T07:58:57;28.92;;;16.27;;
25437;SDS011;13364;49.084;9.978;2022-11-03T08:01:27;29.80;;;17.10;;
25437;SDS011;13364;49.084;9.978;2022-11-03T08:03:58;32.78;;;16.88;;
25437;SDS011;13364;49.084;9.978;2022-11-03T08:06:31;29.35;;;17.80;;
25437;SDS011;13364;49.084;9.978;2022-11-03T08:08:58;33.85;;;18.10;;
25437;SDS011;13364;49.084;9.978;2022-11-03T08:11:26;31.30;;;18.48;;
25437;SDS011;13364;49.084;9.978;2022-11-03T08:13:55;30.00;;;17.50;;
25437;SDS011;13364;49.084;9.978;2022-11-03T08:16:22;30.52;;;17.98;;
25437;SDS011;13364;49.084;9.978;2022-11-03T08:18:49;31.85;;;17.45;;
25437;SDS011;13364;49.084;9.978;2022-11-03T08:21:16;35.08;;;18.20;;
25437;SDS011;13364;49.084;9.978;2022-11-03T08:23:44;34.88;;;18.17;;
25437;SDS011;13364;49.084;9.978;2022-11-03T08:26:13;30.38;;;17.65;;
25437;SDS011;13364;49.084;9.978;2022-11-03T08:28:41;30.88;;;17.88;;
25437;SDS011;13364;49.084;9.978;2022-11-03T08:31:08;27.75;;;17.85;;
25437;SDS011;13364;49.084;9.978;2022-11-03T08:33:38;28.73;;;16.60;;
25437;SDS011;13364;49.084;9.978;2022-11-03T08:36:05;26.85;;;17.13;;
25437;SDS011;13364;49.084;9.978;2022-11-03T08:38:34;26.02;;;16.33;;
25437;SDS011;13364;49.084;9.978;2022-11-03T08:41:01;26.75;;;16.75;;
25437;SDS011;13364;49.084;9.978;2022-11-03T08:43:28;29.42;;;17.00;;
25437;SDS011;13364;49.084;9.978;2022-11-03T08:46:01;32.67;;;17.77;;
25437;SDS011;13364;49.084;9.978;2022-11-03T08:48:40;28.30;;;17.02;;
25437;SDS011;13364;49.084;9.978;2022-11-03T08:51:08;27.75;;;17.73;;
25437;SDS011;13364;49.084;9.978;2022-11-03T08:53:38;29.95;;;17.80;;
25437;SDS011;13364;49.084;9.978;2022-11-03T08:56:08;24.40;;;16.48;;
25437;SDS011;13364;49.084;9.978;2022-11-03T08:58:40;26.02;;;16.75;;
25437;SDS011;13364;49.084;9.978;2022-11-03T09:01:08;28.65;;;17.00;;
25437;SDS011;13364;49.084;9.978;2022-11-03T09:03:35;28.15;;;17.33;;
25437;SDS011;13364;49.084;9.978;2022-11-03T09:06:02;26.13;;;16.35;;
25437;SDS011;13364;49.084;9.978;2022-11-03T09:08:29;26.98;;;15.88;;
25437;SDS011;13364;49.084;9.978;2022-11-03T09:11:16;30.67;;;16.85;;
25437;SDS011;13364;49.084;9.978;2022-11-03T09:13:43;25.10;;;14.60;;
25437;SDS011;13364;49.084;9.978;2022-11-03T09:16:10;23.55;;;16.10;;
25437;SDS011;13364;49.084;9.978;2022-11-03T09:18:37;25.08;;;15.38;;
25437;SDS011;13364;49.084;9.978;2022-11-03T09:21:04;21.58;;;14.48;;
25437;SDS011;13364;49.084;9.978;2022-11-03T09:23:31;24.42;;;15.65;;
25437;SDS011;13364;49.084;9.978;2022-11-03T09:25:58;23.85;;;15.20;;
25437;SDS011;13364;49.084;9.978;2022-11-03T09:28:25;22.15;;;14.82;;
25437;SDS011;13364;49.084;9.978;2022-11-03T09:30:52;22.15;;;13.63;;
25437;SDS011;13364;49.084;9.978;2022-11-03T09:33:20;20.52;;;14.02;;
25437;SDS011;13364;49.084;9.978;2022-11-03T09:35:47;18.80;;;12.77;;
25437;SDS011;13364;49.084;9.978;2022-11-03T09:38:14;19.45;;;12.35;;
25437;SDS011;13364;49.084;9.978;2022-11-03T09:40:41;20.05;;;12.30;;
25437;SDS011;13364;49.084;9.978;2022-11-03T09:43:09;20.42;;;11.75;;
25437;SDS011;13364;49.084;9.978;2022-11-03T09:45:37;20.10;;;12.20;;
25437;SDS011;13364;49.084;9.978;2022-11-03T09:48:06;25.30;;;13.52;;
25437;SDS011;13364;49.084;9.978;2022-11-03T09:50:38;20.80;;;11.88;;
25437;SDS011;13364;49.084;9.978;2022-11-03T09:53:05;17.92;;;11.55;;
25437;SDS011;13364;49.084;9.978;2022-11-03T09:55:35;16.63;;;11.32;;
25437;SDS011;13364;49.084;9.978;2022-11-03T09:58:08;17.58;;;10.57;;
25437;SDS011;13364;49.084;9.978;2022-11-03T10:00:39;17.50;;;10.73;;
25437;SDS011;13364;49.084;9.978;2022-11-03T10:03:10;13.65;;;9.30;;
25437;SDS011;13364;49.084;9.978;2022-11-03T10:05:39;16.33;;;9.25;;
25437;SDS011;13364;49.084;9.978;2022-11-03T10:08:10;12.60;;;8.80;;
25437;SDS011;13364;49.084;9.978;2022-11-03T10:10:59;13.05;;;9.00;;
25437;SDS011;13364;49.084;9.978;2022-11-03T10:15:54;13.82;;;8.32;;
25437;SDS011;13364;49.084;9.978;2022-11-03T10:18:22;13.38;;;9.05;;
25437;SDS011;13364;49.084;9.978;2022-11-03T10:20:50;12.20;;;7.85;;
25437;SDS011;13364;49.084;9.978;2022-11-03T10:23:17;15.48;;;8.20;;
25437;SDS011;13364;49.084;9.978;2022-11-03T10:25:44;16.58;;;8.90;;
25437;SDS011;13364;49.084;9.978;2022-11-03T10:33:39;10.90;;;7.45;;
25437;SDS011;13364;49.084;9.978;2022-11-03T10:38:43;12.88;;;6.93;;
25437;SDS011;13364;49.084;9.978;2022-11-03T10:41:12;10.23;;;6.07;;
25437;SDS011;13364;49.084;9.978;2022-11-03T10:43:53;7.60;;;5.68;;
25437;SDS011;13364;49.084;9.978;2022-11-03T10:46:37;7.82;;;6.03;;
25437;SDS011;13364;49.084;9.978;2022-11-03T10:49:20;11.10;;;6.40;;
25437;SDS011;13364;49.084;9.978;2022-11-03T10:51:51;11.55;;;5.53;;
25437;SDS011;13364;49.084;9.978;2022-11-03T10:54:20;8.73;;;5.65;;
25437;SDS011;13364;49.084;9.978;2022-11-03T10:56:49;11.43;;;6.10;;
25437;SDS011;13364;49.084;9.978;2022-11-03T10:59:18;8.25;;;5.03;;
25437;SDS011;13364;49.084;9.978;2022-11-03T11:01:47;6.00;;;4.03;;
25437;SDS011;13364;49.084;9.978;2022-11-03T11:04:15;8.70;;;5.40;;
25437;SDS011;13364;49.084;9.978;2022-11-03T11:06:43;8.68;;;4.47;;
25437;SDS011;13364;49.084;9.978;2022-11-03T11:09:13;9.27;;;4.50;;
25437;SDS011;13364;49.084;9.978;2022-11-03T11:12:00;11.63;;;5.10;;
25437;SDS011;13364;49.084;9.978;2022-11-03T11:14:34;7.85;;;4.80;;
25437;SDS011;13364;49.084;9.978;2022-11-03T11:17:04;7.32;;;5.03;;
25437;SDS011;13364;49.084;9.978;2022-11-03T11:22:44;5.63;;;3.80;;
25437;SDS011;13364;49.084;9.978;2022-11-03T11:25:11;7.65;;;5.00;;
25437;SDS011;13364;49.084;9.978;2022-11-03T11:30:06;6.90;;;4.50;;
25437;SDS011;13364;49.084;9.978;2022-11-03T11:41:10;4.22;;;3.67;;
25437;SDS011;13364;49.084;9.978;2022-11-03T11:43:37;4.93;;;3.10;;
25437;SDS011;13364;49.084;9.978;2022-11-03T11:51:35;3.47;;;2.38;;
25437;SDS011;13364;49.084;9.978;2022-11-03T11:54:03;7.18;;;2.85;;
25437;SDS011;13364;49.084;9.978;2022-11-03T11:59:27;6.45;;;2.90;;
25437;SDS011;13364;49.084;9.978;2022-11-03T12:01:54;3.60;;;2.20;;
25437;SDS011;13364;49.084;9.978;2022-11-03T12:04:26;7.10;;;2.58;;
25437;SDS011;13364;49.084;9.978;2022-11-03T12:06:57;5.32;;;2.50;;
25437;SDS011;13364;49.084;9.978;2022-11-03T12:09:25;4.70;;;2.65;;
25437;SDS011;13364;49.084;9.978;2022-11-03T12:11:57;6.35;;;2.80;;
25437;SDS011;13364;49.084;9.978;2022-11-03T12:14:38;3.60;;;2.50;;
25437;SDS011;13364;49.084;9.978;2022-11-03T12:19:42;5.40;;;2.70;;
25437;SDS011;13364;49.084;9.978;2022-11-03T12:22:11;3.33;;;2.65;;
25437;SDS011;13364;49.084;9.978;2022-11-03T12:25:01;6.22;;;2.83;;
25437;SDS011;13364;49.084;9.978;2022-11-03T12:29:57;4.43;;;2.97;;
25437;SDS011;13364;49.084;9.978;2022-11-03T12:32:25;5.28;;;2.90;;
25437;SDS011;13364;49.084;9.978;2022-11-03T12:35:04;5.35;;;2.58;;
25437;SDS011;13364;49.084;9.978;2022-11-03T12:37:33;4.95;;;2.60;;
25437;SDS011;13364;49.084;9.978;2022-11-03T12:40:01;4.75;;;3.03;;
25437;SDS011;13364;49.084;9.978;2022-11-03T12:42:28;4.88;;;2.50;;
25437;SDS011;13364;49.084;9.978;2022-11-03T12:44:55;4.30;;;2.75;;
25437;SDS011;13364;49.084;9.978;2022-11-03T12:47:22;7.00;;;2.90;;
25437;SDS011;13364;49.084;9.978;2022-11-03T12:49:49;5.32;;;2.80;;
25437;SDS011;13364;49.084;9.978;2022-11-03T12:52:16;3.20;;;2.22;;
25437;SDS011;13364;49.084;9.978;2022-11-03T12:54:43;6.38;;;2.70;;
25437;SDS011;13364;49.084;9.978;2022-11-03T12:57:10;5.70;;;2.92;;
25437;SDS011;13364;49.084;9.978;2022-11-03T12:59:37;4.50;;;2.97;;
25437;SDS011;13364;49.084;9.978;2022-11-03T13:02:04;5.00;;;3.10;;
25437;SDS011;13364;49.084;9.978;2022-11-03T13:04:32;3.17;;;2.45;;
25437;SDS011;13364;49.084;9.978;2022-11-03T13:06:59;5.68;;;2.97;;
25437;SDS011;13364;49.084;9.978;2022-11-03T13:09:26;5.38;;;3.13;;
25437;SDS011;13364;49.084;9.978;2022-11-03T13:11:53;4.35;;;3.08;;
25437;SDS011;13364;49.084;9.978;2022-11-03T13:14:38;5.40;;;3.25;;
25437;SDS011;13364;49.084;9.978;2022-11-03T13:17:11;4.38;;;3.05;;
25437;SDS011;13364;49.084;9.978;2022-11-03T13:19:38;8.82;;;3.72;;
25437;SDS011;13364;49.084;9.978;2022-11-03T13:22:05;9.23;;;3.80;;
25437;SDS011;13364;49.084;9.978;2022-11-03T13:24:32;8.25;;;3.55;;
25437;SDS011;13364;49.084;9.978;2022-11-03T13:26:59;6.20;;;3.42;;
25437;SDS011;13364;49.084;9.978;2022-11-03T13:29:26;6.30;;;3.78;;
25437;SDS011;13364;49.084;9.978;2022-11-03T13:32:00;5.85;;;3.88;;
25437;SDS011;13364;49.084;9.978;2022-11-03T13:34:29;6.47;;;3.78;;
25437;SDS011;13364;49.084;9.978;2022-11-03T13:36:56;9.98;;;3.95;;
25437;SDS011;13364;49.084;9.978;2022-11-03T13:39:24;7.90;;;4.05;;
25437;SDS011;13364;49.084;9.978;2022-11-03T13:41:51;8.50;;;3.88;;
25437;SDS011;13364;49.084;9.978;2022-11-03T13:44:18;8.98;;;3.75;;
25437;SDS011;13364;49.084;9.978;2022-11-03T13:46:45;9.13;;;4.65;;
25437;SDS011;13364;49.084;9.978;2022-11-03T13:49:12;8.98;;;3.92;;
25437;SDS011;13364;49.084;9.978;2022-11-03T13:52:00;9.35;;;5.60;;
25437;SDS011;13364;49.084;9.978;2022-11-03T13:54:28;6.40;;;4.85;;
25437;SDS011;13364;49.084;9.978;2022-11-03T13:57:15;6.60;;;4.80;;
25437;SDS011;13364;49.084;9.978;2022-11-03T14:00:03;8.70;;;5.30;;
25437;SDS011;13364;49.084;9.978;2022-11-03T14:02:37;6.90;;;4.35;;
25437;SDS011;13364;49.084;9.978;2022-11-03T14:05:24;8.52;;;4.72;;
25437;SDS011;13364;49.084;9.978;2022-11-03T14:07:51;8.25;;;4.45;;
25437;SDS011;13364;49.084;9.978;2022-11-03T14:10:18;10.35;;;5.13;;
25437;SDS011;13364;49.084;9.978;2022-11-03T14:12:45;7.60;;;4.63;;
25437;SDS011;13364;49.084;9.978;2022-11-03T14:15:13;10.45;;;4.63;;
25437;SDS011;13364;49.084;9.978;2022-11-03T14:17:40;6.90;;;4.82;;
25437;SDS011;13364;49.084;9.978;2022-11-03T14:20:07;6.70;;;5.07;;
25437;SDS011;13364;49.084;9.978;2022-11-03T14:22:36;7.20;;;4.03;;
25437;SDS011;13364;49.084;9.978;2022-11-03T14:25:04;7.00;;;4.25;;
25437;SDS011;13364;49.084;9.978;2022-11-03T14:27:33;6.70;;;4.30;;
25437;SDS011;13364;49.084;9.978;2022-11-03T14:30:00;9.20;;;4.80;;
25437;SDS011;13364;49.084;9.978;2022-11-03T14:32:28;10.30;;;5.18;;
25437;SDS011;13364;49.084;9.978;2022-11-03T14:34:55;6.75;;;4.72;;
25437;SDS011;13364;49.084;9.978;2022-11-03T14:37:22;5.80;;;4.18;;
25437;SDS011;13364;49.084;9.978;2022-11-03T14:39:51;7.20;;;4.38;;
25437;SDS011;13364;49.084;9.978;2022-11-03T14:42:18;7.15;;;4.38;;
25437;SDS011;13364;49.084;9.978;2022-11-03T14:44:45;7.65;;;4.35;;
25437;SDS011;13364;49.084;9.978;2022-11-03T14:47:14;7.10;;;4.80;;
25437;SDS011;13364;49.084;9.978;2022-11-03T14:49:43;8.23;;;4.50;;
25437;SDS011;13364;49.084;9.978;2022-11-03T14:52:11;7.53;;;4.93;;
25437;SDS011;13364;49.084;9.978;2022-11-03T14:54:38;7.78;;;4.82;;
25437;SDS011;13364;49.084;9.978;2022-11-03T15:00:29;6.95;;;5.07;;
25437;SDS011;13364;49.084;9.978;2022-11-03T15:02:56;10.43;;;5.05;;
25437;SDS011;13364;49.084;9.978;2022-11-03T15:05:23;6.53;;;4.68;;
25437;SDS011;13364;49.084;9.978;2022-11-03T15:08:15;11.85;;;4.95;;
25437;SDS011;13364;49.084;9.978;2022-11-03T15:10:43;6.85;;;4.75;;
25437;SDS011;13364;49.084;9.978;2022-11-03T15:13:11;7.72;;;4.85;;
25437;SDS011;13364;49.084;9.978;2022-11-03T15:15:38;8.77;;;5.47;;
25437;SDS011;13364;49.084;9.978;2022-11-03T15:18:07;7.88;;;5.30;;
25437;SDS011;13364;49.084;9.978;2022-11-03T15:20:35;8.07;;;5.30;;
25437;SDS011;13364;49.084;9.978;2022-11-03T15:23:03;9.35;;;5.82;;
25437;SDS011;13364;49.084;9.978;2022-11-03T15:25:51;11.18;;;6.45;;
25437;SDS011;13364;49.084;9.978;2022-11-03T15:28:18;9.05;;;6.38;;
25437;SDS011;13364;49.084;9.978;2022-11-03T15:30:46;8.25;;;6.20;;
25437;SDS011;13364;49.084;9.978;2022-11-03T15:33:16;11.30;;;6.75;;
25437;SDS011;13364;49.084;9.978;2022-11-03T15:35:43;15.70;;;6.05;;
25437;SDS011;13364;49.084;9.978;2022-11-03T15:38:11;9.82;;;6.50;;
25437;SDS011;13364;49.084;9.978;2022-11-03T15:40:38;13.55;;;6.47;;
25437;SDS011;13364;49.084;9.978;2022-11-03T15:43:05;11.15;;;6.57;;
25437;SDS011;13364;49.084;9.978;2022-11-03T15:49:03;12.10;;;5.57;;
25437;SDS011;13364;49.084;9.978;2022-11-03T15:51:31;8.40;;;5.93;;
25437;SDS011;13364;49.084;9.978;2022-11-03T15:53:58;10.13;;;5.78;;
25437;SDS011;13364;49.084;9.978;2022-11-03T15:56:25;10.00;;;6.00;;
25437;SDS011;13364;49.084;9.978;2022-11-03T15:58:52;9.75;;;6.35;;
25437;SDS011;13364;49.084;9.978;2022-11-03T16:01:20;9.38;;;6.22;;
25437;SDS011;13364;49.084;9.978;2022-11-03T16:06:38;9.80;;;6.35;;
25437;SDS011;13364;49.084;9.978;2022-11-03T16:09:25;12.45;;;6.93;;
25437;SDS011;13364;49.084;9.978;2022-11-03T16:11:52;10.75;;;7.07;;
25437;SDS011;13364;49.084;9.978;2022-11-03T16:14:19;9.95;;;7.30;;
25437;SDS011;13364;49.084;9.978;2022-11-03T16:16:47;9.65;;;6.38;;
25437;SDS011;13364;49.084;9.978;2022-11-03T16:19:14;10.60;;;6.63;;
25437;SDS011;13364;49.084;9.978;2022-11-03T16:21:41;11.45;;;6.53;;
25437;SDS011;13364;49.084;9.978;2022-11-03T16:24:08;11.18;;;6.85;;
25437;SDS011;13364;49.084;9.978;2022-11-03T16:26:35;10.80;;;6.35;;
25437;SDS011;13364;49.084;9.978;2022-11-03T16:29:02;12.80;;;6.93;;
25437;SDS011;13364;49.084;9.978;2022-11-03T16:31:29;11.75;;;7.38;;
25437;SDS011;13364;49.084;9.978;2022-11-03T16:33:56;16.30;;;8.75;;
25437;SDS011;13364;49.084;9.978;2022-11-03T16:36:24;12.60;;;7.43;;